createdAt,value
2023-05-10T00:00:30.660Z,14.98
2023-05-10T00:02:59.525Z,12.32
2023-05-10T00:05:27.695Z,10.10
2023-05-10T00:07:59.057Z,10.07
2023-05-10T00:10:27.420Z,11.88
2023-05-10T00:12:55.644Z,12.23
2023-05-10T00:15:29.262Z,13.43
2023-05-10T00:17:59.437Z,15.73
2023-05-10T00:20:29.353Z,20.42
2023-05-10T00:22:57.742Z,21.40
2023-05-10T00:25:27.322Z,21.33
2023-05-10T00:27:58.098Z,23.73
2023-05-10T00:30:30.881Z,25.73
2023-05-10T00:32:58.986Z,25.80
2023-05-10T00:35:30.900Z,27.77
2023-05-10T00:37:59.052Z,26.45
2023-05-10T00:40:27.551Z,28.00
2023-05-10T00:43:00.334Z,25.33
2023-05-10T00:45:35.216Z,27.42
2023-05-10T00:48:03.957Z,27.23
2023-05-10T00:50:33.223Z,27.65
2023-05-10T00:53:04.615Z,29.10
2023-05-10T00:55:33.048Z,28.15
2023-05-10T00:58:02.616Z,29.27
2023-05-10T01:00:33.449Z,29.98
2023-05-10T01:03:03.076Z,29.60
2023-05-10T01:05:31.492Z,29.92
2023-05-10T01:08:00.084Z,32.25
2023-05-10T01:10:28.322Z,30.00
2023-05-10T01:12:56.565Z,32.58
2023-05-10T01:15:25.806Z,30.15
2023-05-10T01:17:55.134Z,30.67
2023-05-10T01:20:27.556Z,30.10
2023-05-10T01:23:22.821Z,27.55
2023-05-10T01:26:23.049Z,26.00
2023-05-10T01:29:22.610Z,26.38
2023-05-10T01:32:32.591Z,26.63
2023-05-10T01:35:06.924Z,24.10
2023-05-10T01:37:44.681Z,26.92
2023-05-10T01:40:20.729Z,25.45
2023-05-10T01:42:53.637Z,24.48
2023-05-10T01:45:27.622Z,24.20
2023-05-10T01:48:07.373Z,23.88
2023-05-10T01:50:42.285Z,23.50
2023-05-10T01:53:12.029Z,22.92
2023-05-10T01:55:45.489Z,22.52
2023-05-10T01:58:16.476Z,22.08
2023-05-10T02:00:45.902Z,23.30
2023-05-10T02:03:14.824Z,22.85
2023-05-10T02:05:46.269Z,23.25
2023-05-10T02:08:16.392Z,23.17
2023-05-10T02:10:46.386Z,24.95
2023-05-10T02:13:16.159Z,25.05
2023-05-10T02:15:45.998Z,25.33
2023-05-10T02:18:15.295Z,27.85
2023-05-10T02:20:46.033Z,24.95
2023-05-10T02:23:16.184Z,25.67
2023-05-10T02:25:47.088Z,24.52
2023-05-10T02:28:16.908Z,23.95
2023-05-10T02:30:45.564Z,24.15
2023-05-10T02:33:14.162Z,24.25
2023-05-10T02:35:45.293Z,23.45
2023-05-10T02:38:16.144Z,23.08
2023-05-10T02:40:45.531Z,21.88
2023-05-10T02:43:16.228Z,21.77
2023-05-10T02:45:45.500Z,19.85
2023-05-10T02:48:15.772Z,21.70
2023-05-10T02:50:52.273Z,19.60
2023-05-10T02:53:24.538Z,18.00
2023-05-10T02:55:54.712Z,18.52
2023-05-10T02:58:25.204Z,19.15
2023-05-10T03:00:53.801Z,20.30
2023-05-10T03:03:22.294Z,19.65
2023-05-10T03:05:56.617Z,18.92
2023-05-10T03:08:25.509Z,19.05
2023-05-10T03:11:02.195Z,20.48
2023-05-10T03:13:36.387Z,20.48
2023-05-10T03:16:10.362Z,19.73
2023-05-10T03:18:45.212Z,19.65
2023-05-10T03:21:16.156Z,22.77
2023-05-10T03:23:48.490Z,22.20
2023-05-10T03:26:21.376Z,21.23
2023-05-10T03:28:52.848Z,21.60
2023-05-10T03:31:22.346Z,23.88
2023-05-10T03:33:50.784Z,23.33
2023-05-10T03:36:28.127Z,22.77
2023-05-10T03:38:57.312Z,23.90
2023-05-10T03:41:28.188Z,25.52
2023-05-10T03:43:56.475Z,23.10
2023-05-10T03:46:27.507Z,23.02
2023-05-10T03:48:57.977Z,23.27
2023-05-10T03:51:29.289Z,23.02
2023-05-10T03:53:58.862Z,22.88
2023-05-10T03:56:27.865Z,24.85
2023-05-10T03:58:56.153Z,23.48
2023-05-10T04:01:27.202Z,22.58
2023-05-10T04:03:56.527Z,24.90
2023-05-10T04:06:24.671Z,23.73
2023-05-10T04:08:54.625Z,22.98
2023-05-10T04:11:23.671Z,22.98
2023-05-10T04:13:52.284Z,23.20
2023-05-10T04:16:20.736Z,24.52
2023-05-10T04:18:49.184Z,25.55
2023-05-10T04:21:17.991Z,23.17
2023-05-10T04:23:46.548Z,22.95
2023-05-10T04:26:17.069Z,22.42
2023-05-10T04:28:46.198Z,20.27
2023-05-10T04:31:14.362Z,20.83
2023-05-10T04:33:43.282Z,21.80
2023-05-10T04:36:16.290Z,21.27
2023-05-10T04:38:46.973Z,23.13
2023-05-10T04:41:16.497Z,21.35
2023-05-10T04:43:45.521Z,20.80
2023-05-10T04:46:13.863Z,23.17
2023-05-10T04:48:43.175Z,22.48
2023-05-10T04:51:11.227Z,21.92
2023-05-10T04:53:41.866Z,21.77
2023-05-10T04:56:11.797Z,20.85
2023-05-10T04:58:41.332Z,21.60
2023-05-10T05:01:10.468Z,20.05
2023-05-10T05:03:39.666Z,21.67
2023-05-10T05:06:09.581Z,24.33
2023-05-10T05:08:38.219Z,22.27
2023-05-10T05:11:06.330Z,20.50
2023-05-10T05:13:34.499Z,20.65
2023-05-10T05:16:07.132Z,20.00
2023-05-10T05:21:03.369Z,20.63
2023-05-10T05:23:32.552Z,20.15
2023-05-10T05:26:02.795Z,19.42
2023-05-10T05:28:33.828Z,18.85
2023-05-10T05:31:02.357Z,19.90
2023-05-10T05:33:32.414Z,20.73
2023-05-10T05:36:03.210Z,21.95
2023-05-10T05:38:34.115Z,22.70
2023-05-10T05:41:02.524Z,20.88
2023-05-10T05:43:32.172Z,22.33
2023-05-10T05:46:00.289Z,22.45
2023-05-10T05:48:28.479Z,22.58
2023-05-10T05:50:58.690Z,21.77
2023-05-10T05:53:27.348Z,22.42
2023-05-10T05:56:00.972Z,23.85
2023-05-10T05:58:53.147Z,22.50
2023-05-10T06:01:22.017Z,22.13
2023-05-10T06:03:52.673Z,20.98
2023-05-10T06:06:23.102Z,20.55
2023-05-10T06:08:54.170Z,19.55
2023-05-10T06:11:22.554Z,18.13
2023-05-10T06:13:52.965Z,18.02
2023-05-10T06:16:21.359Z,16.65
2023-05-10T06:18:50.583Z,16.95
2023-05-10T06:21:18.642Z,14.27
2023-05-10T06:23:48.036Z,14.20
2023-05-10T06:26:16.364Z,13.88
2023-05-10T06:28:50.444Z,13.73
2023-05-10T06:31:19.818Z,12.55
2023-05-10T06:33:48.297Z,10.65
2023-05-10T06:36:16.460Z,9.52
2023-05-10T06:38:47.408Z,9.02
2023-05-10T06:41:17.225Z,8.50
2023-05-10T06:43:46.878Z,7.65
2023-05-10T06:46:15.514Z,6.57
2023-05-10T06:48:43.569Z,6.63
2023-05-10T06:51:12.129Z,6.63
2023-05-10T06:53:40.159Z,6.10
2023-05-10T06:56:08.465Z,7.00
2023-05-10T06:58:39.926Z,5.25
2023-05-10T07:01:08.481Z,4.50
2023-05-10T07:03:37.218Z,4.93
2023-05-10T07:06:13.292Z,4.88
2023-05-10T07:08:47.445Z,4.13
2023-05-10T07:11:15.559Z,5.15
2023-05-10T07:13:50.695Z,3.63
2023-05-10T07:16:20.983Z,2.72
2023-05-10T07:18:51.410Z,2.40
2023-05-10T07:21:20.222Z,2.92
2023-05-10T07:23:48.637Z,3.72
2023-05-10T07:26:18.242Z,3.33
2023-05-10T07:28:49.428Z,2.38
2023-05-10T07:31:17.653Z,2.53
2023-05-10T07:33:47.500Z,2.60
2023-05-10T07:36:16.394Z,3.90
2023-05-10T07:38:44.804Z,3.75
2023-05-10T07:41:14.266Z,3.33
2023-05-10T07:43:42.590Z,3.38
2023-05-10T07:46:19.745Z,3.97
2023-05-10T07:48:47.899Z,4.15
2023-05-10T07:51:16.718Z,6.07
2023-05-10T07:53:44.793Z,5.78
2023-05-10T07:56:26.235Z,5.40
2023-05-10T07:58:57.181Z,5.93
2023-05-10T08:01:31.946Z,6.07
2023-05-10T08:04:03.176Z,6.30
2023-05-10T08:06:33.513Z,6.53
2023-05-10T08:09:02.126Z,7.00
2023-05-10T08:11:30.640Z,10.75
2023-05-10T08:14:03.664Z,14.15
2023-05-10T08:16:35.251Z,15.52
2023-05-10T08:19:06.441Z,18.85
2023-05-10T08:21:36.698Z,21.10
2023-05-10T08:24:06.460Z,21.85
2023-05-10T08:26:35.652Z,21.65
2023-05-10T08:29:05.212Z,22.75
2023-05-10T08:31:35.488Z,23.23
2023-05-10T08:34:03.931Z,25.98
2023-05-10T08:36:34.166Z,24.58
2023-05-10T08:39:03.549Z,23.25
2023-05-10T08:41:33.101Z,20.02
2023-05-10T08:44:12.872Z,19.83
2023-05-10T08:46:45.415Z,18.20
2023-05-10T08:49:18.389Z,17.50
2023-05-10T08:51:57.088Z,17.10
2023-05-10T08:54:27.334Z,13.38
2023-05-10T08:56:56.325Z,11.80
2023-05-10T08:59:27.145Z,9.98
2023-05-10T09:02:00.920Z,8.40
2023-05-10T09:04:30.723Z,9.50
2023-05-10T09:07:00.156Z,5.43
2023-05-10T09:09:30.180Z,5.57
2023-05-10T09:12:03.190Z,4.70
2023-05-10T09:14:32.228Z,4.78
2023-05-10T09:17:05.573Z,4.22
2023-05-10T09:19:38.663Z,4.53
2023-05-10T09:22:10.358Z,3.88
2023-05-10T09:24:43.638Z,3.33
2023-05-10T09:27:16.814Z,3.17
2023-05-10T09:29:46.056Z,2.58
2023-05-10T09:32:17.458Z,2.47
2023-05-10T09:34:51.106Z,3.50
2023-05-10T09:37:20.074Z,2.60
2023-05-10T09:39:48.237Z,3.33
2023-05-10T09:42:21.201Z,3.42
2023-05-10T09:44:49.702Z,3.65
2023-05-10T09:47:22.621Z,3.97
2023-05-10T09:49:52.524Z,3.47
2023-05-10T09:52:22.222Z,3.10
2023-05-10T09:54:56.966Z,3.10
2023-05-10T09:57:27.992Z,3.05
2023-05-10T10:00:07.188Z,3.28
2023-05-10T10:02:45.180Z,3.05
2023-05-10T10:05:14.304Z,2.87
2023-05-10T10:07:47.359Z,2.90
2023-05-10T10:10:17.378Z,2.72
2023-05-10T10:12:47.445Z,2.90
2023-05-10T10:15:17.114Z,2.58
2023-05-10T10:17:47.305Z,3.35
2023-05-10T10:20:16.589Z,3.10
2023-05-10T10:22:45.692Z,2.65
2023-05-10T10:25:18.815Z,2.78
2023-05-10T10:27:51.368Z,2.80
2023-05-10T10:30:32.693Z,3.22
2023-05-10T10:33:29.662Z,2.85
2023-05-10T10:36:02.482Z,2.75
2023-05-10T10:38:39.930Z,2.40
2023-05-10T10:41:30.578Z,2.85
2023-05-10T10:44:35.864Z,2.80
2023-05-10T10:47:09.411Z,2.80
2023-05-10T10:49:50.625Z,2.90
2023-05-10T10:52:24.620Z,2.67
2023-05-10T10:54:53.709Z,3.10
2023-05-10T10:57:24.609Z,2.63
2023-05-10T10:59:57.235Z,3.30
2023-05-10T11:05:50.656Z,2.78
2023-05-10T11:08:23.096Z,2.60
2023-05-10T11:10:54.446Z,2.20
2023-05-10T11:13:33.702Z,2.42
2023-05-10T11:16:15.801Z,2.17
2023-05-10T11:18:56.524Z,2.38
2023-05-10T11:21:26.308Z,2.47
2023-05-10T11:23:57.938Z,2.63
2023-05-10T11:26:27.443Z,2.37
2023-05-10T11:28:57.469Z,2.67
2023-05-10T11:31:27.959Z,2.50
2023-05-10T11:33:58.026Z,1.70
2023-05-10T11:36:29.644Z,2.00
2023-05-10T11:38:59.422Z,1.75
2023-05-10T11:41:34.768Z,2.10
2023-05-10T11:44:04.260Z,1.77
2023-05-10T11:46:32.365Z,2.00
2023-05-10T11:49:05.427Z,2.13
2023-05-10T11:51:40.521Z,1.80
2023-05-10T11:54:10.963Z,1.83
2023-05-10T11:56:39.187Z,1.60
2023-05-10T11:59:09.382Z,1.50
2023-05-10T12:01:39.699Z,1.80
2023-05-10T12:04:09.042Z,1.65
2023-05-10T12:06:43.076Z,2.17
2023-05-10T12:09:11.459Z,2.20
2023-05-10T12:11:44.665Z,2.22
2023-05-10T12:14:13.880Z,2.20
2023-05-10T12:16:49.696Z,1.88
2023-05-10T12:19:21.589Z,2.47
2023-05-10T12:21:52.386Z,2.58
2023-05-10T12:24:22.749Z,2.42
2023-05-10T12:26:52.382Z,2.60
2023-05-10T12:29:21.568Z,3.00
2023-05-10T12:31:57.386Z,3.85
2023-05-10T12:34:37.092Z,2.88
2023-05-10T12:37:08.160Z,3.42
2023-05-10T12:39:42.308Z,2.63
2023-05-10T12:42:12.166Z,3.00
2023-05-10T12:44:41.561Z,3.70
2023-05-10T12:47:14.089Z,3.42
2023-05-10T12:49:45.091Z,2.80
2023-05-10T12:52:19.215Z,2.72
2023-05-10T12:54:47.991Z,3.30
2023-05-10T12:57:17.429Z,3.00
2023-05-10T12:59:50.411Z,2.80
2023-05-10T13:02:20.370Z,4.00
2023-05-10T13:04:51.115Z,3.40
2023-05-10T13:07:21.245Z,3.78
2023-05-10T13:09:50.840Z,3.90
2023-05-10T13:12:19.158Z,4.65
2023-05-10T13:14:47.894Z,4.65
2023-05-10T13:17:16.112Z,4.38
2023-05-10T13:19:45.960Z,5.05
2023-05-10T13:22:18.732Z,5.18
2023-05-10T13:24:52.585Z,3.92
2023-05-10T13:27:21.095Z,4.35
2023-05-10T13:29:49.350Z,4.25
2023-05-10T13:32:17.795Z,5.00
2023-05-10T13:34:47.730Z,3.92
2023-05-10T13:37:17.022Z,3.97
2023-05-10T13:39:45.621Z,4.05
2023-05-10T13:42:15.103Z,4.18
2023-05-10T13:44:43.919Z,3.60
2023-05-10T13:47:13.064Z,3.78
2023-05-10T13:49:44.434Z,4.03
2023-05-10T13:52:13.090Z,4.20
2023-05-10T13:54:43.372Z,4.25
2023-05-10T13:57:15.083Z,4.38
2023-05-10T13:59:44.711Z,4.72
2023-05-10T14:02:14.177Z,3.63
2023-05-10T14:04:44.091Z,5.07
2023-05-10T14:07:12.478Z,5.60
2023-05-10T14:09:40.684Z,4.60
2023-05-10T14:12:09.027Z,5.20
2023-05-10T14:14:37.784Z,4.72
2023-05-10T14:17:12.332Z,4.72
2023-05-10T14:19:43.408Z,5.20
2023-05-10T14:22:12.449Z,5.32
2023-05-10T14:24:40.789Z,5.75
2023-05-10T14:27:09.149Z,6.40
2023-05-10T14:29:37.902Z,5.50
2023-05-10T14:32:09.636Z,4.82
2023-05-10T14:34:38.761Z,5.57
2023-05-10T14:37:07.323Z,5.72
2023-05-10T14:39:36.326Z,5.30
2023-05-10T14:42:07.442Z,5.68
2023-05-10T14:44:36.209Z,5.05
2023-05-10T14:47:04.953Z,4.90
2023-05-10T14:49:37.435Z,4.13
2023-05-10T14:52:07.376Z,3.80
2023-05-10T14:54:43.410Z,3.88
2023-05-10T14:57:11.991Z,3.63
2023-05-10T14:59:40.677Z,2.50
2023-05-10T15:02:11.415Z,3.55
2023-05-10T15:04:41.994Z,2.35
2023-05-10T15:07:10.850Z,1.70
2023-05-10T15:09:43.458Z,1.83
2023-05-10T15:14:40.940Z,1.50
2023-05-10T15:17:09.726Z,2.05
2023-05-10T15:19:38.085Z,2.10
2023-05-10T15:22:08.923Z,2.28
2023-05-10T15:24:42.181Z,2.15
2023-05-10T15:27:12.204Z,2.65
2023-05-10T15:29:40.233Z,2.45
2023-05-10T15:32:10.959Z,3.17
2023-05-10T15:34:39.507Z,3.33
2023-05-10T15:37:09.293Z,2.65
2023-05-10T15:39:39.679Z,2.63
2023-05-10T15:42:08.425Z,3.03
2023-05-10T15:44:39.247Z,3.13
2023-05-10T15:47:07.787Z,3.80
2023-05-10T15:49:36.420Z,4.10
2023-05-10T15:52:04.676Z,3.35
2023-05-10T15:54:34.190Z,3.28
2023-05-10T15:57:02.529Z,3.33
2023-05-10T15:59:32.389Z,3.63
2023-05-10T16:02:04.061Z,3.33
2023-05-10T16:04:32.408Z,3.60
2023-05-10T16:07:02.612Z,3.53
2023-05-10T16:09:34.865Z,3.75
2023-05-10T16:12:03.246Z,3.15
2023-05-10T16:14:33.897Z,3.38
2023-05-10T16:17:03.129Z,3.63
2023-05-10T16:19:32.325Z,3.15
2023-05-10T16:22:00.442Z,3.40
2023-05-10T16:24:31.066Z,3.25
2023-05-10T16:27:00.836Z,3.40
2023-05-10T16:29:29.944Z,3.28
2023-05-10T16:31:59.074Z,3.35
2023-05-10T16:34:27.318Z,3.28
2023-05-10T16:36:56.021Z,2.80
2023-05-10T16:39:24.922Z,2.80
2023-05-10T16:41:53.622Z,2.15
2023-05-10T16:44:27.127Z,2.30
2023-05-10T16:46:56.083Z,1.63
2023-05-10T16:49:26.497Z,1.80
2023-05-10T16:52:00.268Z,2.13
2023-05-10T16:54:30.374Z,1.83
2023-05-10T16:57:00.006Z,1.85
2023-05-10T16:59:30.007Z,1.90
2023-05-10T17:01:59.050Z,2.08
2023-05-10T17:04:29.208Z,1.98
2023-05-10T17:06:59.872Z,1.85
2023-05-10T17:09:29.453Z,1.92
2023-05-10T17:12:02.488Z,1.50
2023-05-10T17:14:33.604Z,1.30
2023-05-10T17:17:07.126Z,1.08
2023-05-10T17:19:35.321Z,1.38
2023-05-10T17:22:03.579Z,1.00
2023-05-10T17:24:33.830Z,1.08
2023-05-10T17:27:04.045Z,1.33
2023-05-10T17:29:34.808Z,1.45
2023-05-10T17:32:04.363Z,1.42
2023-05-10T17:34:32.801Z,1.38
2023-05-10T17:37:01.288Z,1.58
2023-05-10T17:39:30.420Z,1.98
2023-05-10T17:41:58.793Z,1.50
2023-05-10T17:44:28.196Z,1.85
2023-05-10T17:46:58.420Z,1.70
2023-05-10T17:49:30.733Z,1.70
2023-05-10T17:52:01.241Z,1.42
2023-05-10T17:54:29.794Z,1.25
2023-05-10T17:56:58.183Z,1.50
2023-05-10T17:59:27.079Z,1.40
2023-05-10T18:02:00.297Z,1.10
2023-05-10T18:04:41.133Z,2.03
2023-05-10T18:07:23.931Z,0.68
2023-05-10T18:09:55.845Z,1.70
2023-05-10T18:12:24.961Z,0.70
2023-05-10T18:14:53.295Z,0.70
2023-05-10T18:17:21.497Z,1.00
2023-05-10T18:20:10.150Z,0.80
2023-05-10T18:22:38.346Z,1.42
2023-05-10T18:25:07.356Z,1.33
2023-05-10T18:27:35.843Z,0.98
2023-05-10T18:30:09.360Z,1.48
2023-05-10T18:32:38.549Z,2.80
2023-05-10T18:35:11.330Z,1.00
2023-05-10T18:37:40.832Z,0.90
2023-05-10T18:40:14.684Z,1.00
2023-05-10T18:42:46.652Z,0.80
2023-05-10T18:45:17.751Z,0.65
2023-05-10T18:47:49.579Z,1.08
2023-05-10T18:50:28.995Z,0.82
2023-05-10T18:52:59.376Z,1.00
2023-05-10T18:55:31.140Z,1.35
2023-05-10T18:58:01.212Z,1.00
2023-05-10T19:00:30.973Z,1.90
2023-05-10T19:02:59.880Z,1.00
2023-05-10T19:05:31.595Z,1.05
2023-05-10T19:08:02.666Z,0.70
2023-05-10T19:10:31.700Z,1.10
2023-05-10T19:13:02.415Z,1.15
2023-05-10T19:15:32.879Z,1.00
2023-05-10T19:18:02.203Z,1.20
2023-05-10T19:20:32.584Z,1.30
2023-05-10T19:23:09.866Z,0.95
2023-05-10T19:25:39.577Z,1.10
2023-05-10T19:28:09.381Z,1.15
2023-05-10T19:30:38.502Z,1.10
2023-05-10T19:33:11.242Z,1.00
2023-05-10T19:35:43.645Z,1.60
2023-05-10T19:38:12.270Z,1.90
2023-05-10T19:40:40.525Z,1.67
2023-05-10T19:43:08.956Z,1.40
2023-05-10T19:45:39.751Z,1.45
2023-05-10T19:48:11.088Z,1.65
2023-05-10T19:50:42.041Z,1.77
2023-05-10T19:53:14.137Z,1.48
2023-05-10T19:55:43.801Z,1.73
2023-05-10T19:58:14.928Z,2.28
2023-05-10T20:00:48.042Z,1.58
2023-05-10T20:03:17.226Z,1.45
2023-05-10T20:05:47.105Z,1.90
2023-05-10T20:08:40.946Z,1.80
2023-05-10T20:11:13.350Z,1.60
2023-05-10T20:13:42.410Z,1.75
2023-05-10T20:16:10.596Z,2.00
2023-05-10T20:18:39.114Z,2.35
2023-05-10T20:21:11.259Z,2.35
2023-05-10T20:23:39.322Z,2.45
2023-05-10T20:26:08.711Z,2.50
2023-05-10T20:28:38.031Z,2.78
2023-05-10T20:31:07.065Z,2.70
2023-05-10T20:33:35.232Z,3.38
2023-05-10T20:36:03.387Z,3.13
2023-05-10T20:38:32.843Z,3.60
2023-05-10T20:41:01.345Z,3.90
2023-05-10T20:43:30.072Z,3.97
2023-05-10T20:46:05.181Z,4.53
2023-05-10T20:48:34.289Z,5.13
2023-05-10T20:51:07.990Z,4.60
2023-05-10T20:53:38.104Z,4.97
2023-05-10T20:56:09.665Z,4.85
2023-05-10T20:58:39.710Z,5.25
2023-05-10T21:01:15.518Z,6.32
2023-05-10T21:03:43.958Z,6.20
2023-05-10T21:06:12.373Z,6.15
2023-05-10T21:08:43.408Z,6.53
2023-05-10T21:11:11.509Z,7.53
2023-05-10T21:13:44.705Z,8.82
2023-05-10T21:16:13.334Z,10.23
2023-05-10T21:18:41.582Z,12.40
2023-05-10T21:21:12.376Z,12.40
2023-05-10T21:23:48.639Z,12.38
2023-05-10T21:26:18.631Z,14.45
2023-05-10T21:28:52.124Z,14.82
2023-05-10T21:31:20.859Z,14.40
2023-05-10T21:33:52.502Z,15.85
2023-05-10T21:36:26.272Z,17.33
2023-05-10T21:38:59.970Z,16.52
2023-05-10T21:41:31.818Z,17.00
2023-05-10T21:44:03.290Z,17.92
2023-05-10T21:46:32.587Z,17.85
2023-05-10T21:49:01.698Z,17.20
2023-05-10T21:51:31.821Z,16.20
2023-05-10T21:54:02.468Z,14.07
2023-05-10T21:56:32.112Z,13.85
2023-05-10T21:59:04.174Z,13.10
2023-05-10T22:01:33.897Z,12.10
2023-05-10T22:04:02.077Z,12.18
2023-05-10T22:06:33.268Z,10.75
2023-05-10T22:09:05.397Z,8.53
2023-05-10T22:11:37.747Z,6.90
2023-05-10T22:14:09.944Z,6.70
2023-05-10T22:16:44.421Z,6.38
2023-05-10T22:19:13.104Z,6.50
2023-05-10T22:21:44.474Z,6.25
2023-05-10T22:24:16.593Z,6.60
2023-05-10T22:26:46.069Z,6.10
2023-05-10T22:29:16.208Z,7.75
2023-05-10T22:31:47.273Z,8.07
2023-05-10T22:34:19.762Z,8.23
2023-05-10T22:36:56.218Z,9.35
2023-05-10T22:39:32.871Z,10.77
2023-05-10T22:42:01.130Z,11.23
2023-05-10T22:44:31.444Z,10.93
2023-05-10T22:47:02.298Z,11.18
2023-05-10T22:49:33.344Z,12.57
2023-05-10T22:52:03.314Z,12.50
2023-05-10T22:54:36.152Z,12.98
2023-05-10T22:57:07.292Z,13.57
2023-05-10T22:59:36.152Z,13.23
2023-05-10T23:02:06.729Z,13.77
2023-05-10T23:07:22.356Z,10.40
2023-05-10T23:09:52.363Z,11.73
2023-05-10T23:12:24.592Z,9.73
2023-05-10T23:14:54.713Z,8.85
2023-05-10T23:17:24.797Z,9.05
2023-05-10T23:19:53.473Z,6.82
2023-05-10T23:22:22.128Z,6.38
2023-05-10T23:24:54.254Z,4.97
2023-05-10T23:27:24.352Z,5.45
2023-05-10T23:29:55.935Z,5.10
2023-05-10T23:32:24.091Z,3.83
2023-05-10T23:34:54.255Z,4.00
2023-05-10T23:37:26.198Z,3.45
2023-05-10T23:39:59.403Z,2.40
2023-05-10T23:42:28.683Z,1.98
2023-05-10T23:44:57.540Z,1.85
2023-05-10T23:47:30.141Z,1.80
2023-05-10T23:52:26.510Z,2.72
2023-05-10T23:54:56.331Z,2.30
2023-05-10T23:57:31.206Z,1.88
